sensor_id;sensor_type;location;lat;lon;timestamp;P1;durP1;ratioP1;P2;durP2;ratioP2
15970;SDS011;59785;52.582;13.892;2022-11-15T00:35:15;95.32;;;36.38;;
15970;SDS011;59785;52.582;13.892;2022-11-15T00:38:00;91.07;;;37.35;;
15970;SDS011;59785;52.582;13.892;2022-11-15T00:43:31;84.28;;;35.72;;
15970;SDS011;59785;52.582;13.892;2022-11-15T00:49:01;91.05;;;36.17;;
15970;SDS011;59785;52.582;13.892;2022-11-15T00:51:45;91.97;;;39.78;;
15970;SDS011;59785;52.582;13.892;2022-11-15T00:54:29;95.63;;;39.40;;
15970;SDS011;59785;52.582;13.892;2022-11-15T00:57:14;94.82;;;37.80;;
15970;SDS011;59785;52.582;13.892;2022-11-15T00:59:58;94.15;;;39.45;;
15970;SDS011;59785;52.582;13.892;2022-11-15T01:02:43;101.65;;;38.83;;
15970;SDS011;59785;52.582;13.892;2022-11-15T01:05:27;103.00;;;39.03;;
15970;SDS011;59785;52.582;13.892;2022-11-15T01:08:13;106.03;;;40.77;;
15970;SDS011;59785;52.582;13.892;2022-11-15T01:11:03;118.63;;;40.05;;
15970;SDS011;59785;52.582;13.892;2022-11-15T01:13:49;115.43;;;41.08;;
15970;SDS011;59785;52.582;13.892;2022-11-15T01:16:33;135.25;;;41.55;;
15970;SDS011;59785;52.582;13.892;2022-11-15T01:19:18;110.95;;;40.13;;
15970;SDS011;59785;52.582;13.892;2022-11-15T01:22:02;92.68;;;38.78;;
15970;SDS011;59785;52.582;13.892;2022-11-15T01:24:48;110.97;;;39.70;;
15970;SDS011;59785;52.582;13.892;2022-11-15T01:27:34;112.00;;;40.15;;
15970;SDS011;59785;52.582;13.892;2022-11-15T01:30:18;98.43;;;39.38;;
15970;SDS011;59785;52.582;13.892;2022-11-15T01:33:03;100.53;;;40.55;;
15970;SDS011;59785;52.582;13.892;2022-11-15T01:35:47;89.75;;;37.65;;
15970;SDS011;59785;52.582;13.892;2022-11-15T01:38:32;86.88;;;38.88;;
15970;SDS011;59785;52.582;13.892;2022-11-15T01:41:17;88.15;;;39.80;;
15970;SDS011;59785;52.582;13.892;2022-11-15T01:47:28;81.82;;;37.90;;
15970;SDS011;59785;52.582;13.892;2022-11-15T01:50:19;89.28;;;38.42;;
15970;SDS011;59785;52.582;13.892;2022-11-15T01:53:06;86.28;;;38.05;;
15970;SDS011;59785;52.582;13.892;2022-11-15T01:55:51;84.40;;;39.10;;
15970;SDS011;59785;52.582;13.892;2022-11-15T01:58:38;85.53;;;38.67;;
15970;SDS011;59785;52.582;13.892;2022-11-15T02:01:24;94.22;;;39.15;;
15970;SDS011;59785;52.582;13.892;2022-11-15T02:04:18;80.45;;;37.40;;
15970;SDS011;59785;52.582;13.892;2022-11-15T02:07:08;83.85;;;36.33;;
15970;SDS011;59785;52.582;13.892;2022-11-15T02:10:01;92.30;;;38.80;;
15970;SDS011;59785;52.582;13.892;2022-11-15T02:12:50;88.50;;;36.05;;
15970;SDS011;59785;52.582;13.892;2022-11-15T02:15:38;81.28;;;37.22;;
15970;SDS011;59785;52.582;13.892;2022-11-15T02:18:46;105.78;;;37.97;;
15970;SDS011;59785;52.582;13.892;2022-11-15T02:21:39;103.43;;;37.80;;
15970;SDS011;59785;52.582;13.892;2022-11-15T02:30:53;158.50;;;41.30;;
15970;SDS011;59785;52.582;13.892;2022-11-15T02:37:16;119.93;;;39.97;;
15970;SDS011;59785;52.582;13.892;2022-11-15T02:40:30;122.63;;;42.10;;
15970;SDS011;59785;52.582;13.892;2022-11-15T02:43:25;96.63;;;37.60;;
15970;SDS011;59785;52.582;13.892;2022-11-15T02:49:45;123.68;;;42.33;;
15970;SDS011;59785;52.582;13.892;2022-11-15T02:52:32;97.43;;;38.15;;
15970;SDS011;59785;52.582;13.892;2022-11-15T03:07:36;133.35;;;40.78;;
15970;SDS011;59785;52.582;13.892;2022-11-15T03:13:49;112.30;;;38.15;;
15970;SDS011;59785;52.582;13.892;2022-11-15T03:19:46;133.32;;;38.67;;
15970;SDS011;59785;52.582;13.892;2022-11-15T03:22:36;130.35;;;40.45;;
15970;SDS011;59785;52.582;13.892;2022-11-15T03:25:24;140.30;;;39.33;;
15970;SDS011;59785;52.582;13.892;2022-11-15T03:28:11;111.18;;;39.75;;
15970;SDS011;59785;52.582;13.892;2022-11-15T03:30:59;149.45;;;39.80;;
15970;SDS011;59785;52.582;13.892;2022-11-15T03:34:07;96.65;;;36.78;;
15970;SDS011;59785;52.582;13.892;2022-11-15T03:36:57;93.22;;;35.42;;
15970;SDS011;59785;52.582;13.892;2022-11-15T03:39:42;91.47;;;37.58;;
15970;SDS011;59785;52.582;13.892;2022-11-15T03:42:31;105.40;;;36.75;;
15970;SDS011;59785;52.582;13.892;2022-11-15T03:45:22;87.47;;;36.95;;
15970;SDS011;59785;52.582;13.892;2022-11-15T03:48:14;90.75;;;36.10;;
15970;SDS011;59785;52.582;13.892;2022-11-15T03:51:05;97.07;;;36.13;;
15970;SDS011;59785;52.582;13.892;2022-11-15T03:53:50;79.00;;;34.10;;
15970;SDS011;59785;52.582;13.892;2022-11-15T03:56:36;92.25;;;37.17;;
15970;SDS011;59785;52.582;13.892;2022-11-15T03:59:20;101.93;;;37.33;;
15970;SDS011;59785;52.582;13.892;2022-11-15T04:02:05;78.32;;;34.42;;
15970;SDS011;59785;52.582;13.892;2022-11-15T04:04:50;79.70;;;34.85;;
15970;SDS011;59785;52.582;13.892;2022-11-15T04:07:34;81.90;;;33.38;;
15970;SDS011;59785;52.582;13.892;2022-11-15T04:10:19;77.37;;;33.83;;
15970;SDS011;59785;52.582;13.892;2022-11-15T04:13:04;72.43;;;32.28;;
15970;SDS011;59785;52.582;13.892;2022-11-15T04:15:48;97.15;;;36.33;;
15970;SDS011;59785;52.582;13.892;2022-11-15T04:18:33;96.82;;;34.60;;
15970;SDS011;59785;52.582;13.892;2022-11-15T04:21:18;67.07;;;31.00;;
15970;SDS011;59785;52.582;13.892;2022-11-15T04:24:21;69.70;;;33.10;;
15970;SDS011;59785;52.582;13.892;2022-11-15T04:27:06;68.90;;;31.53;;
15970;SDS011;59785;52.582;13.892;2022-11-15T04:29:51;64.47;;;31.40;;
15970;SDS011;59785;52.582;13.892;2022-11-15T04:32:35;66.68;;;30.98;;
15970;SDS011;59785;52.582;13.892;2022-11-15T04:35:20;70.83;;;31.53;;
15970;SDS011;59785;52.582;13.892;2022-11-15T04:38:06;78.72;;;31.67;;
15970;SDS011;59785;52.582;13.892;2022-11-15T04:40:53;70.30;;;32.03;;
15970;SDS011;59785;52.582;13.892;2022-11-15T04:43:38;70.63;;;31.13;;
15970;SDS011;59785;52.582;13.892;2022-11-15T04:46:22;68.85;;;30.20;;
15970;SDS011;59785;52.582;13.892;2022-11-15T04:51:52;69.10;;;29.85;;
15970;SDS011;59785;52.582;13.892;2022-11-15T04:54:37;71.97;;;31.00;;
15970;SDS011;59785;52.582;13.892;2022-11-15T04:57:21;69.15;;;30.58;;
15970;SDS011;59785;52.582;13.892;2022-11-15T05:00:07;67.95;;;31.90;;
15970;SDS011;59785;52.582;13.892;2022-11-15T05:02:55;64.57;;;31.02;;
15970;SDS011;59785;52.582;13.892;2022-11-15T05:05:59;58.90;;;29.63;;
15970;SDS011;59785;52.582;13.892;2022-11-15T05:08:43;73.15;;;31.48;;
15970;SDS011;59785;52.582;13.892;2022-11-15T05:11:28;68.97;;;31.25;;
15970;SDS011;59785;52.582;13.892;2022-11-15T05:14:13;67.30;;;31.00;;
15970;SDS011;59785;52.582;13.892;2022-11-15T05:16:57;65.78;;;31.85;;
15970;SDS011;59785;52.582;13.892;2022-11-15T05:19:42;56.63;;;29.60;;
15970;SDS011;59785;52.582;13.892;2022-11-15T05:22:26;65.03;;;30.25;;
15970;SDS011;59785;52.582;13.892;2022-11-15T05:25:11;57.78;;;31.35;;
15970;SDS011;59785;52.582;13.892;2022-11-15T05:27:55;61.95;;;31.10;;
15970;SDS011;59785;52.582;13.892;2022-11-15T05:30:40;64.45;;;29.80;;
15970;SDS011;59785;52.582;13.892;2022-11-15T05:33:25;60.22;;;29.95;;
15970;SDS011;59785;52.582;13.892;2022-11-15T05:36:12;61.47;;;30.42;;
15970;SDS011;59785;52.582;13.892;2022-11-15T05:39:13;66.47;;;32.05;;
15970;SDS011;59785;52.582;13.892;2022-11-15T05:42:02;57.38;;;30.13;;
15970;SDS011;59785;52.582;13.892;2022-11-15T05:44:53;58.72;;;29.30;;
15970;SDS011;59785;52.582;13.892;2022-11-15T05:47:38;59.78;;;30.17;;
15970;SDS011;59785;52.582;13.892;2022-11-15T05:50:23;55.35;;;29.33;;
15970;SDS011;59785;52.582;13.892;2022-11-15T05:53:09;55.38;;;29.25;;
15970;SDS011;59785;52.582;13.892;2022-11-15T05:55:56;58.03;;;30.52;;
15970;SDS011;59785;52.582;13.892;2022-11-15T05:58:41;54.53;;;29.27;;
15970;SDS011;59785;52.582;13.892;2022-11-15T06:01:26;52.65;;;27.83;;
15970;SDS011;59785;52.582;13.892;2022-11-15T06:04:12;50.15;;;28.45;;
15970;SDS011;59785;52.582;13.892;2022-11-15T06:06:57;51.80;;;28.27;;
15970;SDS011;59785;52.582;13.892;2022-11-15T06:09:43;53.53;;;28.30;;
15970;SDS011;59785;52.582;13.892;2022-11-15T06:12:28;54.63;;;30.20;;
15970;SDS011;59785;52.582;13.892;2022-11-15T06:15:12;51.30;;;28.52;;
15970;SDS011;59785;52.582;13.892;2022-11-15T06:17:57;65.28;;;32.42;;
15970;SDS011;59785;52.582;13.892;2022-11-15T06:20:42;56.65;;;31.63;;
15970;SDS011;59785;52.582;13.892;2022-11-15T06:23:27;56.95;;;30.75;;
15970;SDS011;59785;52.582;13.892;2022-11-15T06:26:13;56.30;;;30.00;;
15970;SDS011;59785;52.582;13.892;2022-11-15T06:28:57;55.30;;;31.17;;
15970;SDS011;59785;52.582;13.892;2022-11-15T06:31:42;54.15;;;30.05;;
15970;SDS011;59785;52.582;13.892;2022-11-15T06:34:26;55.20;;;29.98;;
15970;SDS011;59785;52.582;13.892;2022-11-15T06:37:11;54.10;;;29.20;;
15970;SDS011;59785;52.582;13.892;2022-11-15T06:39:56;56.95;;;28.77;;
15970;SDS011;59785;52.582;13.892;2022-11-15T06:42:41;53.13;;;28.27;;
15970;SDS011;59785;52.582;13.892;2022-11-15T06:45:26;60.15;;;31.42;;
15970;SDS011;59785;52.582;13.892;2022-11-15T06:48:10;57.10;;;30.75;;
15970;SDS011;59785;52.582;13.892;2022-11-15T06:50:56;57.20;;;31.40;;
15970;SDS011;59785;52.582;13.892;2022-11-15T06:53:42;63.88;;;32.13;;
15970;SDS011;59785;52.582;13.892;2022-11-15T06:56:26;56.50;;;30.20;;
15970;SDS011;59785;52.582;13.892;2022-11-15T06:59:11;54.75;;;29.75;;
15970;SDS011;59785;52.582;13.892;2022-11-15T07:01:56;60.10;;;30.93;;
15970;SDS011;59785;52.582;13.892;2022-11-15T07:04:40;59.10;;;31.73;;
15970;SDS011;59785;52.582;13.892;2022-11-15T07:07:25;55.55;;;29.60;;
15970;SDS011;59785;52.582;13.892;2022-11-15T07:10:10;59.85;;;29.63;;
15970;SDS011;59785;52.582;13.892;2022-11-15T07:12:54;59.28;;;29.05;;
15970;SDS011;59785;52.582;13.892;2022-11-15T07:15:39;54.55;;;30.42;;
15970;SDS011;59785;52.582;13.892;2022-11-15T07:18:24;57.65;;;30.08;;
15970;SDS011;59785;52.582;13.892;2022-11-15T07:21:09;54.63;;;29.13;;
15970;SDS011;59785;52.582;13.892;2022-11-15T07:23:55;56.22;;;28.80;;
15970;SDS011;59785;52.582;13.892;2022-11-15T07:26:39;56.95;;;30.33;;
15970;SDS011;59785;52.582;13.892;2022-11-15T07:29:24;60.53;;;32.70;;
15970;SDS011;59785;52.582;13.892;2022-11-15T07:32:09;64.05;;;30.15;;
15970;SDS011;59785;52.582;13.892;2022-11-15T07:34:54;64.45;;;32.50;;
15970;SDS011;59785;52.582;13.892;2022-11-15T07:37:38;65.78;;;31.38;;
15970;SDS011;59785;52.582;13.892;2022-11-15T07:40:23;67.70;;;30.92;;
15970;SDS011;59785;52.582;13.892;2022-11-15T07:43:08;74.40;;;34.78;;
15970;SDS011;59785;52.582;13.892;2022-11-15T07:45:52;69.30;;;34.40;;
15970;SDS011;59785;52.582;13.892;2022-11-15T07:48:42;70.32;;;34.08;;
15970;SDS011;59785;52.582;13.892;2022-11-15T07:54:13;68.40;;;33.00;;
15970;SDS011;59785;52.582;13.892;2022-11-15T07:56:57;65.20;;;32.25;;
15970;SDS011;59785;52.582;13.892;2022-11-15T07:59:50;69.25;;;32.17;;
15970;SDS011;59785;52.582;13.892;2022-11-15T08:02:34;72.30;;;34.55;;
15970;SDS011;59785;52.582;13.892;2022-11-15T08:05:19;77.32;;;34.95;;
15970;SDS011;59785;52.582;13.892;2022-11-15T08:08:04;73.93;;;34.28;;
15970;SDS011;59785;52.582;13.892;2022-11-15T08:10:49;77.05;;;35.70;;
15970;SDS011;59785;52.582;13.892;2022-11-15T08:13:33;71.60;;;34.83;;
15970;SDS011;59785;52.582;13.892;2022-11-15T08:16:18;78.07;;;34.30;;
15970;SDS011;59785;52.582;13.892;2022-11-15T08:19:02;75.55;;;33.95;;
15970;SDS011;59785;52.582;13.892;2022-11-15T08:21:47;73.55;;;34.17;;
15970;SDS011;59785;52.582;13.892;2022-11-15T08:24:31;78.28;;;34.03;;
15970;SDS011;59785;52.582;13.892;2022-11-15T08:27:16;72.85;;;34.85;;
15970;SDS011;59785;52.582;13.892;2022-11-15T08:30:01;77.53;;;35.33;;
15970;SDS011;59785;52.582;13.892;2022-11-15T08:32:47;79.30;;;37.22;;
15970;SDS011;59785;52.582;13.892;2022-11-15T08:35:33;73.60;;;36.75;;
15970;SDS011;59785;52.582;13.892;2022-11-15T08:38:17;72.97;;;35.80;;
15970;SDS011;59785;52.582;13.892;2022-11-15T08:41:02;74.35;;;35.67;;
15970;SDS011;59785;52.582;13.892;2022-11-15T08:43:48;82.25;;;37.55;;
15970;SDS011;59785;52.582;13.892;2022-11-15T08:46:33;74.22;;;33.83;;
15970;SDS011;59785;52.582;13.892;2022-11-15T08:49:18;72.57;;;35.95;;
15970;SDS011;59785;52.582;13.892;2022-11-15T08:52:02;76.63;;;36.88;;
15970;SDS011;59785;52.582;13.892;2022-11-15T08:54:47;79.78;;;37.17;;
15970;SDS011;59785;52.582;13.892;2022-11-15T08:57:32;77.35;;;35.90;;
15970;SDS011;59785;52.582;13.892;2022-11-15T09:00:17;77.07;;;36.40;;
15970;SDS011;59785;52.582;13.892;2022-11-15T09:03:04;79.03;;;35.28;;
15970;SDS011;59785;52.582;13.892;2022-11-15T09:08:38;68.07;;;33.75;;
15970;SDS011;59785;52.582;13.892;2022-11-15T09:11:40;74.75;;;35.17;;
15970;SDS011;59785;52.582;13.892;2022-11-15T09:14:24;77.18;;;36.63;;
15970;SDS011;59785;52.582;13.892;2022-11-15T09:17:09;67.28;;;35.10;;
15970;SDS011;59785;52.582;13.892;2022-11-15T09:19:54;72.23;;;35.87;;
15970;SDS011;59785;52.582;13.892;2022-11-15T09:22:38;66.80;;;34.63;;
15970;SDS011;59785;52.582;13.892;2022-11-15T09:25:23;74.13;;;34.55;;
15970;SDS011;59785;52.582;13.892;2022-11-15T09:28:08;67.28;;;34.63;;
15970;SDS011;59785;52.582;13.892;2022-11-15T09:30:55;67.63;;;34.38;;
15970;SDS011;59785;52.582;13.892;2022-11-15T09:33:44;64.65;;;33.15;;
15970;SDS011;59785;52.582;13.892;2022-11-15T09:36:30;63.42;;;33.45;;
15970;SDS011;59785;52.582;13.892;2022-11-15T09:39:14;62.58;;;32.83;;
15970;SDS011;59785;52.582;13.892;2022-11-15T09:42:06;58.88;;;32.35;;
15970;SDS011;59785;52.582;13.892;2022-11-15T09:45:06;58.72;;;31.45;;
15970;SDS011;59785;52.582;13.892;2022-11-15T09:48:10;55.00;;;31.90;;
15970;SDS011;59785;52.582;13.892;2022-11-15T09:51:33;63.80;;;32.60;;
15970;SDS011;59785;52.582;13.892;2022-11-15T09:59:55;50.05;;;28.88;;
15970;SDS011;59785;52.582;13.892;2022-11-15T10:02:56;49.90;;;28.98;;
15970;SDS011;59785;52.582;13.892;2022-11-15T10:05:38;51.88;;;28.70;;
15970;SDS011;59785;52.582;13.892;2022-11-15T10:11:19;46.40;;;27.50;;
15970;SDS011;59785;52.582;13.892;2022-11-15T10:14:09;41.03;;;26.02;;
15970;SDS011;59785;52.582;13.892;2022-11-15T10:19:44;56.97;;;27.70;;
15970;SDS011;59785;52.582;13.892;2022-11-15T10:22:38;42.70;;;24.80;;
15970;SDS011;59785;52.582;13.892;2022-11-15T10:25:12;40.25;;;25.13;;
15970;SDS011;59785;52.582;13.892;2022-11-15T10:27:43;40.08;;;24.83;;
15970;SDS011;59785;52.582;13.892;2022-11-15T10:30:13;37.53;;;23.38;;
15970;SDS011;59785;52.582;13.892;2022-11-15T10:32:42;34.90;;;25.70;;
15970;SDS011;59785;52.582;13.892;2022-11-15T10:35:44;37.95;;;22.48;;
15970;SDS011;59785;52.582;13.892;2022-11-15T10:38:06;36.47;;;24.00;;
15970;SDS011;59785;52.582;13.892;2022-11-15T10:40:34;34.08;;;22.80;;
15970;SDS011;59785;52.582;13.892;2022-11-15T10:45:36;36.45;;;22.20;;
15970;SDS011;59785;52.582;13.892;2022-11-15T10:50:40;30.30;;;19.65;;
15970;SDS011;59785;52.582;13.892;2022-11-15T10:53:17;32.92;;;20.73;;
15970;SDS011;59785;52.582;13.892;2022-11-15T10:55:49;29.25;;;19.73;;
15970;SDS011;59785;52.582;13.892;2022-11-15T10:58:22;34.42;;;19.90;;
15970;SDS011;59785;52.582;13.892;2022-11-15T11:01:19;30.15;;;19.95;;
15970;SDS011;59785;52.582;13.892;2022-11-15T11:06:50;29.88;;;19.15;;
15970;SDS011;59785;52.582;13.892;2022-11-15T11:09:23;33.00;;;19.33;;
15970;SDS011;59785;52.582;13.892;2022-11-15T11:12:00;27.13;;;18.70;;
15970;SDS011;59785;52.582;13.892;2022-11-15T11:17:16;27.80;;;17.88;;
15970;SDS011;59785;52.582;13.892;2022-11-15T11:23:02;29.27;;;19.00;;
15970;SDS011;59785;52.582;13.892;2022-11-15T11:28:54;28.02;;;18.08;;
15970;SDS011;59785;52.582;13.892;2022-11-15T11:34:41;28.02;;;18.40;;
15970;SDS011;59785;52.582;13.892;2022-11-15T11:42:16;30.23;;;19.02;;
15970;SDS011;59785;52.582;13.892;2022-11-15T11:47:40;29.58;;;18.25;;
15970;SDS011;59785;52.582;13.892;2022-11-15T11:50:20;32.55;;;19.08;;
15970;SDS011;59785;52.582;13.892;2022-11-15T11:52:57;28.02;;;17.48;;
15970;SDS011;59785;52.582;13.892;2022-11-15T11:55:49;26.98;;;17.48;;
15970;SDS011;59785;52.582;13.892;2022-11-15T11:58:19;26.02;;;17.25;;
15970;SDS011;59785;52.582;13.892;2022-11-15T12:01:11;31.30;;;20.30;;
15970;SDS011;59785;52.582;13.892;2022-11-15T12:03:46;26.38;;;18.95;;
15970;SDS011;59785;52.582;13.892;2022-11-15T12:06:27;29.02;;;19.85;;
15970;SDS011;59785;52.582;13.892;2022-11-15T12:09:00;28.48;;;19.60;;
15970;SDS011;59785;52.582;13.892;2022-11-15T12:11:51;28.88;;;19.38;;
15970;SDS011;59785;52.582;13.892;2022-11-15T12:17:04;33.83;;;20.48;;
15970;SDS011;59785;52.582;13.892;2022-11-15T12:19:30;27.67;;;18.15;;
15970;SDS011;59785;52.582;13.892;2022-11-15T12:22:00;28.48;;;18.73;;
15970;SDS011;59785;52.582;13.892;2022-11-15T12:24:37;27.27;;;17.25;;
15970;SDS011;59785;52.582;13.892;2022-11-15T12:27:18;24.45;;;16.25;;
15970;SDS011;59785;52.582;13.892;2022-11-15T12:29:54;25.92;;;17.05;;
15970;SDS011;59785;52.582;13.892;2022-11-15T12:32:28;24.25;;;16.58;;
15970;SDS011;59785;52.582;13.892;2022-11-15T12:34:56;24.10;;;16.40;;
15970;SDS011;59785;52.582;13.892;2022-11-15T12:45:33;24.52;;;15.27;;
15970;SDS011;59785;52.582;13.892;2022-11-15T13:06:48;21.02;;;14.77;;
15970;SDS011;59785;52.582;13.892;2022-11-15T13:09:50;20.73;;;15.20;;
15970;SDS011;59785;52.582;13.892;2022-11-15T13:12:09;23.00;;;14.95;;
15970;SDS011;59785;52.582;13.892;2022-11-15T13:20:27;27.98;;;17.88;;
15970;SDS011;59785;52.582;13.892;2022-11-15T13:22:46;23.85;;;17.60;;
15970;SDS011;59785;52.582;13.892;2022-11-15T13:28:03;28.50;;;19.23;;
15970;SDS011;59785;52.582;13.892;2022-11-15T13:30:35;26.42;;;19.27;;
15970;SDS011;59785;52.582;13.892;2022-11-15T13:33:08;30.33;;;20.13;;
15970;SDS011;59785;52.582;13.892;2022-11-15T13:35:40;32.08;;;21.45;;
15970;SDS011;59785;52.582;13.892;2022-11-15T13:38:17;28.00;;;20.98;;
15970;SDS011;59785;52.582;13.892;2022-11-15T13:40:50;30.50;;;20.83;;
15970;SDS011;59785;52.582;13.892;2022-11-15T13:43:23;30.13;;;21.40;;
15970;SDS011;59785;52.582;13.892;2022-11-15T13:48:34;30.67;;;21.63;;
15970;SDS011;59785;52.582;13.892;2022-11-15T13:51:01;37.83;;;23.63;;
15970;SDS011;59785;52.582;13.892;2022-11-15T13:53:31;37.83;;;21.80;;
15970;SDS011;59785;52.582;13.892;2022-11-15T13:55:58;36.25;;;23.73;;
15970;SDS011;59785;52.582;13.892;2022-11-15T13:58:25;33.47;;;21.85;;
15970;SDS011;59785;52.582;13.892;2022-11-15T14:00:58;32.75;;;22.35;;
15970;SDS011;59785;52.582;13.892;2022-11-15T14:08:42;40.30;;;25.73;;
15970;SDS011;59785;52.582;13.892;2022-11-15T14:11:24;44.00;;;25.60;;
15970;SDS011;59785;52.582;13.892;2022-11-15T14:16:35;41.00;;;26.15;;
15970;SDS011;59785;52.582;13.892;2022-11-15T14:19:03;43.45;;;26.35;;
15970;SDS011;59785;52.582;13.892;2022-11-15T14:21:31;45.38;;;27.77;;
15970;SDS011;59785;52.582;13.892;2022-11-15T14:24:13;44.65;;;26.55;;
15970;SDS011;59785;52.582;13.892;2022-11-15T14:26:43;41.90;;;27.15;;
15970;SDS011;59785;52.582;13.892;2022-11-15T14:29:25;45.95;;;27.52;;
15970;SDS011;59785;52.582;13.892;2022-11-15T14:34:58;48.33;;;28.70;;
15970;SDS011;59785;52.582;13.892;2022-11-15T14:37:26;51.95;;;32.17;;
15970;SDS011;59785;52.582;13.892;2022-11-15T14:39:57;47.30;;;29.33;;
15970;SDS011;59785;52.582;13.892;2022-11-15T14:42:23;51.65;;;31.50;;
15970;SDS011;59785;52.582;13.892;2022-11-15T14:44:50;50.05;;;30.52;;
15970;SDS011;59785;52.582;13.892;2022-11-15T14:47:17;50.70;;;31.23;;
15970;SDS011;59785;52.582;13.892;2022-11-15T14:49:44;50.85;;;30.88;;
15970;SDS011;59785;52.582;13.892;2022-11-15T14:54:57;52.80;;;31.20;;
15970;SDS011;59785;52.582;13.892;2022-11-15T14:57:25;52.28;;;34.20;;
15970;SDS011;59785;52.582;13.892;2022-11-15T14:59:51;55.88;;;31.02;;
15970;SDS011;59785;52.582;13.892;2022-11-15T15:02:18;55.63;;;35.60;;
15970;SDS011;59785;52.582;13.892;2022-11-15T15:04:50;57.72;;;34.50;;
15970;SDS011;59785;52.582;13.892;2022-11-15T15:07:16;59.30;;;35.58;;
15970;SDS011;59785;52.582;13.892;2022-11-15T15:09:43;59.58;;;34.13;;
15970;SDS011;59785;52.582;13.892;2022-11-15T15:12:17;61.13;;;36.33;;
15970;SDS011;59785;52.582;13.892;2022-11-15T15:14:46;62.78;;;35.25;;
15970;SDS011;59785;52.582;13.892;2022-11-15T15:17:13;57.13;;;35.90;;
15970;SDS011;59785;52.582;13.892;2022-11-15T15:19:40;67.07;;;36.70;;
15970;SDS011;59785;52.582;13.892;2022-11-15T15:22:09;63.38;;;36.53;;
15970;SDS011;59785;52.582;13.892;2022-11-15T15:24:39;62.90;;;38.03;;
15970;SDS011;59785;52.582;13.892;2022-11-15T15:27:05;65.18;;;38.25;;
15970;SDS011;59785;52.582;13.892;2022-11-15T15:29:32;67.80;;;39.92;;
15970;SDS011;59785;52.582;13.892;2022-11-15T15:31:58;71.40;;;40.45;;
15970;SDS011;59785;52.582;13.892;2022-11-15T15:34:24;73.53;;;40.88;;
15970;SDS011;59785;52.582;13.892;2022-11-15T15:37:05;71.50;;;39.95;;
15970;SDS011;59785;52.582;13.892;2022-11-15T15:39:50;66.32;;;36.67;;
15970;SDS011;59785;52.582;13.892;2022-11-15T15:42:20;68.20;;;39.17;;
15970;SDS011;59785;52.582;13.892;2022-11-15T15:44:48;66.15;;;38.53;;
15970;SDS011;59785;52.582;13.892;2022-11-15T15:47:19;70.28;;;39.42;;
15970;SDS011;59785;52.582;13.892;2022-11-15T15:49:47;73.65;;;40.33;;
15970;SDS011;59785;52.582;13.892;2022-11-15T15:52:15;74.95;;;37.97;;
15970;SDS011;59785;52.582;13.892;2022-11-15T15:54:41;75.40;;;39.20;;
15970;SDS011;59785;52.582;13.892;2022-11-15T15:57:07;76.95;;;39.08;;
15970;SDS011;59785;52.582;13.892;2022-11-15T15:59:37;71.75;;;37.97;;
15970;SDS011;59785;52.582;13.892;2022-11-15T16:02:03;74.30;;;38.85;;
15970;SDS011;59785;52.582;13.892;2022-11-15T16:04:31;73.97;;;39.85;;
15970;SDS011;59785;52.582;13.892;2022-11-15T16:06:58;82.85;;;40.75;;
15970;SDS011;59785;52.582;13.892;2022-11-15T16:09:25;74.93;;;39.65;;
15970;SDS011;59785;52.582;13.892;2022-11-15T16:12:11;74.72;;;41.42;;
15970;SDS011;59785;52.582;13.892;2022-11-15T16:14:37;76.25;;;41.20;;
15970;SDS011;59785;52.582;13.892;2022-11-15T16:17:03;75.10;;;40.63;;
15970;SDS011;59785;52.582;13.892;2022-11-15T16:19:29;73.10;;;40.40;;
15970;SDS011;59785;52.582;13.892;2022-11-15T16:21:55;81.63;;;41.95;;
15970;SDS011;59785;52.582;13.892;2022-11-15T16:24:22;70.40;;;39.28;;
15970;SDS011;59785;52.582;13.892;2022-11-15T16:26:49;71.50;;;39.67;;
15970;SDS011;59785;52.582;13.892;2022-11-15T16:29:16;76.68;;;40.83;;
15970;SDS011;59785;52.582;13.892;2022-11-15T16:31:42;72.85;;;39.38;;
15970;SDS011;59785;52.582;13.892;2022-11-15T16:34:08;78.65;;;39.50;;
15970;SDS011;59785;52.582;13.892;2022-11-15T16:36:35;78.53;;;38.72;;
15970;SDS011;59785;52.582;13.892;2022-11-15T16:39:01;79.03;;;39.85;;
15970;SDS011;59785;52.582;13.892;2022-11-15T16:41:30;75.45;;;38.72;;
15970;SDS011;59785;52.582;13.892;2022-11-15T16:43:57;74.68;;;39.42;;
15970;SDS011;59785;52.582;13.892;2022-11-15T16:46:25;81.18;;;39.67;;
15970;SDS011;59785;52.582;13.892;2022-11-15T16:48:52;77.20;;;40.47;;
15970;SDS011;59785;52.582;13.892;2022-11-15T16:51:19;74.43;;;39.03;;
15970;SDS011;59785;52.582;13.892;2022-11-15T16:53:45;77.57;;;38.88;;
15970;SDS011;59785;52.582;13.892;2022-11-15T16:58:53;87.60;;;42.72;;
15970;SDS011;59785;52.582;13.892;2022-11-15T17:01:23;87.70;;;44.33;;
15970;SDS011;59785;52.582;13.892;2022-11-15T17:03:51;96.53;;;43.20;;
15970;SDS011;59785;52.582;13.892;2022-11-15T17:06:17;104.05;;;45.63;;
15970;SDS011;59785;52.582;13.892;2022-11-15T17:08:44;102.40;;;45.78;;
15970;SDS011;59785;52.582;13.892;2022-11-15T17:11:14;111.03;;;45.70;;
15970;SDS011;59785;52.582;13.892;2022-11-15T17:13:43;107.97;;;46.33;;
15970;SDS011;59785;52.582;13.892;2022-11-15T17:16:11;113.28;;;46.17;;
15970;SDS011;59785;52.582;13.892;2022-11-15T17:18:39;104.43;;;45.95;;
15970;SDS011;59785;52.582;13.892;2022-11-15T17:21:06;118.78;;;46.83;;
15970;SDS011;59785;52.582;13.892;2022-11-15T17:23:36;110.55;;;45.90;;
15970;SDS011;59785;52.582;13.892;2022-11-15T17:26:03;104.78;;;45.58;;
15970;SDS011;59785;52.582;13.892;2022-11-15T17:28:53;103.80;;;45.38;;
15970;SDS011;59785;52.582;13.892;2022-11-15T17:31:20;114.20;;;46.53;;
15970;SDS011;59785;52.582;13.892;2022-11-15T17:33:46;113.07;;;44.88;;
15970;SDS011;59785;52.582;13.892;2022-11-15T17:36:12;133.43;;;47.70;;
15970;SDS011;59785;52.582;13.892;2022-11-15T17:38:41;108.43;;;44.08;;
15970;SDS011;59785;52.582;13.892;2022-11-15T17:41:14;111.70;;;44.85;;
15970;SDS011;59785;52.582;13.892;2022-11-15T17:43:41;106.45;;;42.53;;
15970;SDS011;59785;52.582;13.892;2022-11-15T17:46:10;102.07;;;42.80;;
15970;SDS011;59785;52.582;13.892;2022-11-15T17:48:41;124.85;;;45.08;;
15970;SDS011;59785;52.582;13.892;2022-11-15T17:51:09;106.85;;;40.78;;
15970;SDS011;59785;52.582;13.892;2022-11-15T17:53:37;105.10;;;43.30;;
15970;SDS011;59785;52.582;13.892;2022-11-15T17:56:07;100.78;;;42.58;;
15970;SDS011;59785;52.582;13.892;2022-11-15T17:58:35;106.10;;;41.47;;
15970;SDS011;59785;52.582;13.892;2022-11-15T18:01:05;104.18;;;41.03;;
15970;SDS011;59785;52.582;13.892;2022-11-15T18:03:39;96.57;;;41.95;;
15970;SDS011;59785;52.582;13.892;2022-11-15T18:06:06;94.20;;;42.83;;
15970;SDS011;59785;52.582;13.892;2022-11-15T18:08:37;97.85;;;42.03;;
15970;SDS011;59785;52.582;13.892;2022-11-15T18:11:05;93.82;;;40.70;;
15970;SDS011;59785;52.582;13.892;2022-11-15T18:13:34;93.95;;;40.28;;
15970;SDS011;59785;52.582;13.892;2022-11-15T18:16:01;97.93;;;39.42;;
15970;SDS011;59785;52.582;13.892;2022-11-15T18:18:30;104.75;;;39.70;;